createdAt,value
2019-04-06T00:01:20.562Z,76.20
2019-04-06T00:03:52.034Z,75.40
2019-04-06T00:06:20.787Z,75.50
2019-04-06T00:08:49.953Z,75.60
2019-04-06T00:11:19.306Z,75.60
2019-04-06T00:13:48.520Z,75.40
2019-04-06T00:16:17.705Z,76.00
2019-04-06T00:18:47.004Z,75.60
2019-04-06T00:21:16.740Z,76.30
2019-04-06T00:23:45.900Z,76.00
2019-04-06T00:26:15.117Z,76.00
2019-04-06T00:28:44.507Z,76.60
2019-04-06T00:31:31.936Z,75.60
2019-04-06T00:34:01.477Z,76.40
2019-04-06T00:36:30.735Z,76.80
2019-04-06T00:38:59.936Z,76.50
2019-04-06T00:41:29.125Z,76.70
2019-04-06T00:43:58.389Z,77.10
2019-04-06T00:46:27.673Z,77.10
2019-04-06T00:48:56.934Z,76.70
2019-04-06T00:51:26.203Z,76.80
2019-04-06T00:53:55.453Z,77.20
2019-04-06T00:56:24.757Z,77.50
2019-04-06T00:58:53.986Z,77.00
2019-04-06T01:01:23.493Z,77.50
2019-04-06T01:03:52.859Z,78.10
2019-04-06T01:06:22.108Z,77.20
2019-04-06T01:08:51.329Z,77.60
2019-04-06T01:11:20.899Z,78.10
2019-04-06T01:13:50.177Z,77.60
2019-04-06T01:16:19.483Z,76.60
2019-04-06T01:18:48.733Z,76.80
2019-04-06T01:21:18.034Z,76.90
2019-04-06T01:23:47.299Z,77.70
2019-04-06T01:26:17.956Z,77.80
2019-04-06T01:28:47.277Z,77.20
2019-04-06T01:31:16.908Z,78.10
2019-04-06T01:33:46.204Z,78.40
2019-04-06T01:36:15.619Z,78.10
2019-04-06T01:38:44.819Z,78.00
2019-04-06T01:41:16.777Z,78.20
2019-04-06T01:43:46.093Z,78.10
2019-04-06T01:46:16.284Z,77.60
2019-04-06T01:48:45.853Z,78.30
2019-04-06T01:51:15.394Z,78.30
2019-04-06T01:53:44.728Z,78.20
2019-04-06T01:56:18.762Z,78.70
2019-04-06T01:58:44.994Z,78.30
2019-04-06T02:01:20.784Z,78.30
2019-04-06T02:03:50.484Z,78.10
2019-04-06T02:06:19.785Z,78.90
2019-04-06T02:08:49.123Z,78.20
2019-04-06T02:11:20.199Z,78.30
2019-04-06T02:13:49.813Z,78.80
2019-04-06T02:16:20.380Z,78.40
2019-04-06T02:18:49.727Z,78.40
2019-04-06T02:21:19.009Z,77.90
2019-04-06T02:23:49.069Z,77.90
2019-04-06T02:26:29.103Z,78.50
2019-04-06T02:28:49.276Z,78.80
2019-04-06T02:31:36.598Z,78.10
2019-04-06T02:34:35.659Z,78.90
2019-04-06T02:37:19.685Z,79.30
2019-04-06T02:40:11.320Z,77.70
2019-04-06T02:42:45.337Z,79.00
2019-04-06T02:45:14.649Z,79.30
2019-04-06T02:47:43.823Z,79.30
2019-04-06T02:50:13.521Z,79.30
2019-04-06T02:52:43.071Z,79.00
2019-04-06T02:55:12.679Z,78.90
2019-04-06T02:57:41.943Z,79.50
2019-04-06T03:00:11.638Z,79.00
2019-04-06T03:02:40.960Z,79.60
2019-04-06T03:05:10.351Z,79.30
2019-04-06T03:07:39.718Z,79.10
2019-04-06T03:10:09.568Z,79.30
2019-04-06T03:12:39.847Z,78.50
2019-04-06T03:15:11.335Z,79.30
2019-04-06T03:17:40.806Z,79.20
2019-04-06T03:20:10.583Z,79.50
2019-04-06T03:22:39.998Z,79.90
2019-04-06T03:25:10.096Z,79.90
2019-04-06T03:27:39.666Z,79.60
2019-04-06T03:30:11.382Z,80.00
2019-04-06T03:32:40.591Z,80.80
2019-04-06T03:35:09.968Z,81.40
2019-04-06T03:37:39.173Z,80.60
2019-04-06T03:40:08.617Z,81.00
2019-04-06T03:42:37.901Z,80.80
2019-04-06T03:45:08.825Z,81.20
2019-04-06T03:47:39.499Z,81.80
2019-04-06T03:50:09.163Z,82.70
2019-04-06T03:52:38.496Z,81.90
2019-04-06T03:55:08.780Z,83.30
2019-04-06T03:57:40.897Z,82.20
2019-04-06T04:00:10.551Z,82.00
2019-04-06T04:02:40.658Z,82.50
2019-04-06T04:05:09.874Z,82.00
2019-04-06T04:07:39.062Z,82.70
2019-04-06T04:10:08.483Z,83.30
2019-04-06T04:12:37.870Z,82.40
2019-04-06T04:15:07.695Z,82.80
2019-04-06T04:17:37.183Z,82.90
2019-04-06T04:20:06.805Z,82.40
2019-04-06T04:22:35.940Z,83.20
2019-04-06T04:25:05.032Z,82.30
2019-04-06T04:27:34.154Z,83.10
2019-04-06T04:30:03.371Z,82.20
2019-04-06T04:32:32.386Z,83.20
2019-04-06T04:35:01.632Z,83.20
2019-04-06T04:37:31.033Z,82.40
2019-04-06T04:40:00.441Z,82.40
2019-04-06T04:42:29.622Z,83.60
2019-04-06T04:44:58.762Z,83.30
2019-04-06T04:47:27.942Z,83.50
2019-04-06T04:49:57.089Z,84.50
2019-04-06T04:52:26.461Z,84.40
2019-04-06T04:54:55.642Z,83.20
2019-04-06T04:57:24.905Z,83.40
2019-04-06T04:59:54.239Z,83.90
2019-04-06T05:02:24.268Z,83.70
2019-04-06T05:04:53.373Z,84.70
2019-04-06T05:07:22.519Z,84.00
2019-04-06T05:09:51.723Z,83.90
2019-04-06T05:12:22.075Z,82.70
2019-04-06T05:14:58.097Z,82.70
2019-04-06T05:17:28.885Z,82.70
2019-04-06T05:19:58.057Z,82.50
2019-04-06T05:22:27.241Z,82.10
2019-04-06T05:24:56.547Z,82.20
2019-04-06T05:27:26.035Z,82.80
2019-04-06T05:29:55.313Z,82.60
2019-04-06T05:32:25.700Z,83.10
2019-04-06T05:34:54.874Z,83.10
2019-04-06T05:37:24.093Z,83.10
2019-04-06T05:39:53.376Z,84.10
2019-04-06T05:42:22.496Z,82.90
2019-04-06T05:44:51.903Z,83.20
2019-04-06T05:47:21.242Z,83.10
2019-04-06T05:49:50.884Z,82.30
2019-04-06T05:52:20.026Z,81.80
2019-04-06T05:54:49.274Z,83.90
2019-04-06T05:57:18.593Z,82.70
2019-04-06T05:59:47.667Z,83.70
2019-04-06T06:02:18.194Z,84.10
2019-04-06T06:04:47.795Z,83.60
2019-04-06T06:07:17.430Z,82.50
2019-04-06T06:09:48.755Z,82.50
2019-04-06T06:12:26.032Z,83.00
2019-04-06T06:14:55.418Z,82.30
2019-04-06T06:17:25.136Z,82.20
2019-04-06T06:20:17.619Z,82.90
2019-04-06T06:22:47.299Z,82.20
2019-04-06T06:25:16.692Z,82.00
2019-04-06T06:27:46.278Z,82.40
2019-04-06T06:30:15.929Z,82.30
2019-04-06T06:32:45.889Z,82.20
2019-04-06T06:35:15.118Z,82.20
2019-04-06T06:37:44.525Z,82.20
2019-04-06T06:40:15.479Z,82.20
2019-04-06T06:42:45.049Z,81.90
2019-04-06T06:45:14.454Z,82.00
2019-04-06T06:47:44.304Z,82.10
2019-04-06T06:50:14.205Z,82.70
2019-04-06T06:52:43.566Z,82.80
2019-04-06T06:55:13.200Z,82.70
2019-04-06T06:57:46.961Z,82.60
2019-04-06T07:00:16.063Z,82.90
2019-04-06T07:02:45.281Z,82.10
2019-04-06T07:05:14.354Z,82.20
2019-04-06T07:07:43.674Z,82.20
2019-04-06T07:10:14.295Z,82.50
2019-04-06T07:12:43.619Z,82.40
2019-04-06T07:15:14.470Z,82.60
2019-04-06T07:17:46.886Z,82.60
2019-04-06T07:20:16.529Z,82.10
2019-04-06T07:22:46.065Z,82.60
2019-04-06T07:25:15.444Z,82.80
2019-04-06T07:27:44.674Z,82.30
2019-04-06T07:30:14.611Z,83.10
2019-04-06T07:32:44.819Z,82.70
2019-04-06T07:35:16.571Z,82.90
2019-04-06T07:37:46.077Z,82.50
2019-04-06T07:40:17.763Z,82.80
2019-04-06T07:42:47.000Z,83.50
2019-04-06T07:45:16.187Z,83.00
2019-04-06T07:47:45.383Z,83.50
2019-04-06T07:50:14.990Z,83.20
2019-04-06T07:52:44.319Z,83.00
2019-04-06T07:55:13.491Z,83.10
2019-04-06T07:57:42.717Z,83.50
2019-04-06T08:00:12.201Z,83.10
2019-04-06T08:02:41.453Z,82.90
2019-04-06T08:05:10.710Z,83.00
2019-04-06T08:07:39.892Z,83.00
2019-04-06T08:10:09.751Z,83.00
2019-04-06T08:12:38.865Z,84.10
2019-04-06T08:15:07.976Z,83.30
2019-04-06T08:17:37.145Z,83.30
2019-04-06T08:20:07.338Z,83.00
2019-04-06T08:22:36.528Z,83.20
2019-04-06T08:25:06.935Z,82.80
2019-04-06T08:27:37.020Z,83.10
2019-04-06T08:30:06.830Z,82.90
2019-04-06T08:32:35.938Z,83.50
2019-04-06T08:35:05.228Z,83.20
2019-04-06T08:37:34.370Z,83.30
2019-04-06T08:40:03.653Z,83.20
2019-04-06T08:42:32.951Z,82.90
2019-04-06T08:45:01.894Z,83.20
2019-04-06T08:47:31.522Z,83.20
2019-04-06T08:50:00.647Z,83.50
2019-04-06T08:52:30.276Z,83.20
2019-04-06T08:54:59.619Z,82.90
2019-04-06T08:57:29.320Z,82.80
2019-04-06T08:59:59.178Z,82.80
2019-04-06T09:02:29.101Z,82.70
2019-04-06T09:04:58.466Z,83.20
2019-04-06T09:07:27.427Z,82.90
2019-04-06T09:09:56.504Z,82.70
2019-04-06T09:12:26.729Z,82.50
2019-04-06T09:14:55.939Z,82.50
2019-04-06T09:17:25.016Z,82.50
2019-04-06T09:19:54.145Z,81.90
2019-04-06T09:22:23.183Z,82.20
2019-04-06T09:24:52.909Z,81.80
2019-04-06T09:27:22.175Z,81.90
2019-04-06T09:29:51.233Z,81.50
2019-04-06T09:32:21.190Z,81.70
2019-04-06T09:34:50.471Z,81.80
2019-04-06T09:37:38.989Z,81.90
2019-04-06T09:40:08.249Z,81.70
2019-04-06T09:42:37.278Z,81.70
2019-04-06T09:45:21.024Z,81.70
2019-04-06T09:48:07.967Z,81.80
2019-04-06T09:50:52.893Z,81.50
2019-04-06T09:53:44.720Z,81.60
2019-04-06T09:56:23.240Z,81.50
2019-04-06T09:59:18.027Z,81.60
2019-04-06T10:02:04.009Z,81.40
2019-04-06T10:04:51.197Z,81.20
2019-04-06T10:07:31.178Z,81.40
2019-04-06T10:10:19.393Z,81.40
2019-04-06T10:13:07.681Z,81.50
2019-04-06T10:15:49.503Z,81.40
2019-04-06T10:18:46.769Z,81.40
2019-04-06T10:21:35.340Z,81.80
2019-04-06T10:24:29.690Z,81.60
2019-04-06T10:27:15.539Z,81.50
2019-04-06T10:30:06.677Z,81.30
2019-04-06T10:32:54.813Z,81.40
2019-04-06T10:35:49.025Z,81.40
2019-04-06T10:38:35.773Z,81.30
2019-04-06T10:41:19.706Z,81.20
2019-04-06T10:44:15.082Z,81.30
2019-04-06T10:47:02.277Z,81.30
2019-04-06T10:49:51.626Z,81.30
2019-04-06T10:52:37.530Z,81.00
2019-04-06T10:55:25.033Z,80.90
2019-04-06T10:58:13.246Z,80.80
2019-04-06T11:01:09.547Z,80.80
2019-04-06T11:03:50.602Z,81.10
2019-04-06T11:06:26.349Z,80.70
2019-04-06T11:09:03.213Z,80.60
2019-04-06T11:11:54.135Z,80.70
2019-04-06T11:14:41.138Z,80.60
2019-04-06T11:17:19.253Z,80.50
2019-04-06T11:19:59.598Z,80.30
2019-04-06T11:22:38.334Z,80.50
2019-04-06T11:25:19.646Z,80.50
2019-04-06T11:28:17.170Z,80.70
2019-04-06T11:31:05.898Z,80.60
2019-04-06T11:33:53.478Z,80.80
2019-04-06T11:36:37.986Z,80.70
2019-04-06T11:39:34.154Z,80.30
2019-04-06T11:42:25.401Z,80.70
2019-04-06T11:45:03.444Z,79.70
2019-04-06T11:47:57.494Z,79.40
2019-04-06T11:51:03.917Z,79.50
2019-04-06T11:53:53.372Z,79.80
2019-04-06T11:56:49.275Z,79.40
2019-04-06T11:59:39.518Z,79.40
2019-04-06T12:02:30.798Z,78.40
2019-04-06T12:05:25.125Z,79.00
2019-04-06T12:08:17.034Z,79.30
2019-04-06T12:10:52.802Z,78.30
2019-04-06T12:13:32.095Z,78.00
2019-04-06T12:16:29.292Z,76.90
2019-04-06T12:19:16.581Z,76.30
2019-04-06T12:22:03.466Z,76.80
2019-04-06T12:25:04.211Z,76.20
2019-04-06T12:27:51.891Z,75.80
2019-04-06T12:30:36.605Z,75.20
2019-04-06T12:33:19.246Z,75.40
2019-04-06T12:36:22.724Z,75.30
2019-04-06T12:39:00.654Z,75.00
2019-04-06T12:41:47.447Z,74.90
2019-04-06T12:44:38.517Z,74.30
2019-04-06T12:47:25.815Z,72.30
2019-04-06T12:50:15.659Z,72.30
2019-04-06T12:53:02.796Z,71.70
2019-04-06T12:55:56.602Z,71.20
2019-04-06T12:58:36.767Z,72.60
2019-04-06T13:01:31.449Z,71.30
2019-04-06T13:04:38.508Z,71.00
2019-04-06T13:07:25.814Z,71.80
2019-04-06T13:10:16.939Z,67.80
2019-04-06T13:13:11.245Z,69.70
2019-04-06T13:15:55.183Z,68.50
2019-04-06T13:18:45.287Z,68.00
2019-04-06T13:21:36.560Z,70.30
2019-04-06T13:24:30.690Z,70.00
2019-04-06T13:27:15.518Z,70.00
2019-04-06T13:30:02.246Z,69.10
2019-04-06T13:32:49.598Z,70.00
2019-04-06T13:35:35.111Z,68.60
2019-04-06T13:38:22.160Z,66.40
2019-04-06T13:41:09.578Z,64.50
2019-04-06T13:44:10.303Z,64.90
2019-04-06T13:46:57.427Z,67.00
2019-04-06T13:49:45.697Z,67.40
2019-04-06T13:52:23.265Z,67.60
2019-04-06T13:55:02.191Z,68.10
2019-04-06T13:57:36.134Z,66.10
2019-04-06T14:00:44.470Z,68.90
2019-04-06T14:03:21.406Z,65.90
2019-04-06T14:06:08.620Z,66.20
2019-04-06T14:08:54.063Z,66.80
2019-04-06T14:11:41.115Z,65.60
2019-04-06T14:14:29.924Z,65.60
2019-04-06T14:17:18.287Z,66.50
2019-04-06T14:20:11.961Z,65.80
2019-04-06T14:23:03.248Z,66.00
2019-04-06T14:26:01.328Z,64.70
2019-04-06T14:28:52.898Z,65.30
2019-04-06T14:31:53.395Z,64.70
2019-04-06T14:34:41.446Z,65.30
2019-04-06T14:37:36.252Z,64.10
2019-04-06T14:40:38.207Z,66.00
2019-04-06T14:43:26.793Z,65.30
2019-04-06T14:46:06.582Z,64.90
2019-04-06T14:49:13.672Z,65.50
2019-04-06T14:51:54.993Z,64.40
2019-04-06T14:54:31.502Z,64.50
2019-04-06T14:57:12.865Z,66.20
2019-04-06T15:00:06.699Z,65.30
2019-04-06T15:02:53.562Z,65.60
2019-04-06T15:05:57.257Z,65.20
2019-04-06T15:08:44.396Z,64.20
2019-04-06T15:11:31.434Z,63.30
2019-04-06T15:14:09.793Z,66.00
2019-04-06T15:16:52.697Z,63.90
2019-04-06T15:19:33.081Z,64.00
2019-04-06T15:22:20.488Z,65.10
2019-04-06T15:25:08.752Z,65.30
2019-04-06T15:28:02.936Z,65.70
2019-04-06T15:30:47.468Z,64.10
2019-04-06T15:33:44.816Z,64.60
2019-04-06T15:36:20.076Z,63.80
2019-04-06T15:39:07.701Z,61.20
2019-04-06T15:41:59.419Z,62.30
2019-04-06T15:44:48.406Z,63.50
2019-04-06T15:47:36.461Z,62.80
2019-04-06T15:50:14.035Z,62.70
2019-04-06T15:53:14.326Z,63.10
2019-04-06T15:55:49.935Z,63.30
2019-04-06T15:58:47.051Z,62.30
2019-04-06T16:01:41.026Z,63.10
2019-04-06T16:04:38.471Z,64.20
2019-04-06T16:07:33.202Z,62.20
2019-04-06T16:10:28.827Z,62.70
2019-04-06T16:13:23.814Z,63.30
2019-04-06T16:16:04.613Z,64.30
2019-04-06T16:18:56.258Z,63.30
2019-04-06T16:21:53.482Z,63.60
2019-04-06T16:24:30.618Z,62.70
2019-04-06T16:27:19.109Z,63.40
2019-04-06T16:30:11.193Z,62.80
2019-04-06T16:33:08.953Z,64.20
2019-04-06T16:35:54.612Z,63.40
2019-04-06T16:38:43.099Z,63.50
2019-04-06T16:41:31.362Z,63.90
2019-04-06T16:44:24.777Z,64.30
2019-04-06T16:47:02.472Z,63.90
2019-04-06T16:49:52.849Z,64.10
2019-04-06T16:52:47.099Z,63.80
2019-04-06T16:55:30.128Z,64.30
2019-04-06T16:58:30.972Z,64.20
2019-04-06T17:01:18.375Z,64.90
2019-04-06T17:03:54.346Z,65.40
2019-04-06T17:06:39.164Z,64.90
2019-04-06T17:09:17.691Z,64.60
2019-04-06T17:12:03.924Z,65.00
2019-04-06T17:15:04.099Z,65.40
2019-04-06T17:17:51.408Z,66.00
2019-04-06T17:20:39.759Z,66.10
2019-04-06T17:23:40.766Z,66.20
2019-04-06T17:26:38.025Z,66.30
2019-04-06T17:29:26.348Z,66.70
2019-04-06T17:32:07.450Z,66.80
2019-04-06T17:34:56.661Z,67.00
2019-04-06T17:37:48.451Z,67.20
2019-04-06T17:40:33.798Z,67.40
2019-04-06T17:43:27.446Z,67.60
2019-04-06T17:46:18.457Z,67.80
2019-04-06T17:48:58.854Z,68.10
2019-04-06T17:51:47.893Z,68.50
2019-04-06T17:54:33.712Z,68.80
2019-04-06T17:57:34.273Z,68.90
2019-04-06T18:00:21.708Z,69.40
2019-04-06T18:03:10.289Z,69.90
2019-04-06T18:05:57.333Z,70.00
2019-04-06T18:08:58.021Z,71.00
2019-04-06T18:11:32.699Z,70.80
2019-04-06T18:14:02.044Z,70.80
2019-04-06T18:16:36.438Z,72.00
2019-04-06T18:19:06.219Z,71.60
2019-04-06T18:21:35.315Z,71.20
2019-04-06T18:24:04.461Z,70.90
2019-04-06T18:26:33.541Z,72.20
2019-04-06T18:29:02.813Z,71.80
2019-04-06T18:31:54.090Z,71.40
2019-04-06T18:34:23.889Z,71.40
2019-04-06T18:36:59.450Z,71.80
2019-04-06T18:39:31.265Z,71.40
2019-04-06T18:42:00.823Z,71.40
2019-04-06T18:44:30.985Z,71.80
2019-04-06T18:47:00.263Z,71.80
2019-04-06T18:49:29.545Z,71.60
2019-04-06T18:51:58.881Z,71.40
2019-04-06T18:54:47.121Z,72.10
2019-04-06T18:57:16.343Z,72.90
2019-04-06T18:59:45.394Z,72.90
2019-04-06T19:02:14.759Z,73.30
2019-04-06T19:04:44.051Z,72.70
2019-04-06T19:07:32.627Z,73.20
2019-04-06T19:10:01.908Z,73.10
2019-04-06T19:12:31.336Z,74.30
2019-04-06T19:15:00.663Z,73.60
2019-04-06T19:17:29.718Z,74.10
2019-04-06T19:19:58.810Z,73.70
2019-04-06T19:22:28.376Z,74.50
2019-04-06T19:24:57.778Z,74.80
2019-04-06T19:27:29.654Z,73.30
2019-04-06T19:29:59.582Z,75.20
2019-04-06T19:32:28.822Z,74.80
2019-04-06T19:35:01.194Z,75.00
2019-04-06T19:37:31.706Z,75.20
2019-04-06T19:40:01.467Z,74.10
2019-04-06T19:42:31.131Z,74.60
2019-04-06T19:45:00.311Z,75.20
2019-04-06T19:47:29.390Z,75.60
2019-04-06T19:49:58.695Z,75.00
2019-04-06T19:52:28.302Z,75.20
2019-04-06T19:54:58.499Z,75.70
2019-04-06T19:57:27.582Z,75.70
2019-04-06T19:59:56.667Z,77.20
2019-04-06T20:02:25.955Z,76.60
2019-04-06T20:04:56.341Z,76.40
2019-04-06T20:07:25.862Z,76.30
2019-04-06T20:09:55.682Z,77.90
2019-04-06T20:12:25.345Z,77.00
2019-04-06T20:14:54.361Z,77.90
2019-04-06T20:17:23.419Z,77.20
2019-04-06T20:19:52.577Z,78.00
2019-04-06T20:22:21.703Z,76.90
2019-04-06T20:24:51.025Z,78.50
2019-04-06T20:27:20.143Z,77.90
2019-04-06T20:29:49.733Z,77.60
2019-04-06T20:32:19.009Z,77.20
2019-04-06T20:34:48.197Z,76.60
2019-04-06T20:37:17.197Z,77.60
2019-04-06T20:39:46.455Z,77.40
2019-04-06T20:42:15.781Z,76.30
2019-04-06T20:44:46.177Z,76.70
2019-04-06T20:47:15.347Z,77.70
2019-04-06T20:49:44.354Z,76.60
2019-04-06T20:52:13.589Z,77.20
2019-04-06T20:54:43.196Z,77.10
2019-04-06T20:57:12.733Z,77.30
2019-04-06T20:59:41.922Z,77.10
2019-04-06T21:02:10.958Z,78.60
2019-04-06T21:04:39.980Z,78.20
2019-04-06T21:07:09.492Z,77.20
2019-04-06T21:09:39.376Z,77.40
2019-04-06T21:12:08.627Z,78.50
2019-04-06T21:14:38.141Z,79.10
2019-04-06T21:17:07.733Z,77.90
2019-04-06T21:19:37.773Z,78.80
2019-04-06T21:22:07.022Z,78.90
2019-04-06T21:24:36.134Z,78.60
2019-04-06T21:27:24.890Z,79.60
2019-04-06T21:29:54.361Z,79.60
2019-04-06T21:32:23.480Z,78.40
2019-04-06T21:34:52.745Z,78.70
2019-04-06T21:37:22.042Z,78.10
2019-04-06T21:39:52.535Z,78.80
2019-04-06T21:42:22.625Z,77.50
2019-04-06T21:44:53.595Z,78.00
2019-04-06T21:47:23.116Z,78.00
2019-04-06T21:49:52.869Z,78.60
2019-04-06T21:52:22.625Z,79.00
2019-04-06T21:54:51.971Z,79.50
2019-04-06T21:57:21.811Z,78.90
2019-04-06T21:59:51.519Z,79.50
2019-04-06T22:02:21.608Z,78.80
2019-04-06T22:04:50.940Z,80.10
2019-04-06T22:07:20.104Z,78.50
2019-04-06T22:09:49.356Z,78.50
2019-04-06T22:12:18.870Z,79.10
2019-04-06T22:14:49.039Z,79.20
2019-04-06T22:17:18.676Z,79.30
2019-04-06T22:19:48.247Z,78.70
2019-04-06T22:22:17.960Z,80.00
2019-04-06T22:24:47.292Z,79.10
2019-04-06T22:27:16.617Z,79.60
2019-04-06T22:29:45.776Z,80.30
2019-04-06T22:32:15.303Z,80.20
2019-04-06T22:34:44.445Z,81.80
2019-04-06T22:37:14.002Z,82.30
2019-04-06T22:39:43.271Z,81.60
2019-04-06T22:42:12.705Z,80.30
2019-04-06T22:44:41.732Z,81.00
2019-04-06T22:47:10.972Z,81.10
2019-04-06T22:49:40.173Z,81.40
2019-04-06T22:52:09.421Z,83.00
2019-04-06T22:54:38.784Z,81.10
2019-04-06T22:57:08.155Z,82.50
2019-04-06T22:59:37.185Z,81.80
2019-04-06T23:02:06.636Z,81.90
2019-04-06T23:04:48.613Z,81.50
2019-04-06T23:07:17.760Z,83.40
2019-04-06T23:09:47.400Z,82.50
2019-04-06T23:12:17.708Z,81.90
2019-04-06T23:14:49.013Z,81.20
2019-04-06T23:17:20.394Z,81.70
2019-04-06T23:19:49.689Z,82.80
2019-04-06T23:22:19.740Z,82.80
2019-04-06T23:24:49.145Z,82.70
2019-04-06T23:27:20.482Z,83.30
2019-04-06T23:29:51.680Z,82.50
2019-04-06T23:32:26.623Z,81.80
2019-04-06T23:35:00.756Z,82.30
2019-04-06T23:37:27.933Z,81.60
2019-04-06T23:39:57.215Z,83.70
2019-04-06T23:42:26.425Z,83.20
2019-04-06T23:44:55.785Z,82.80
2019-04-06T23:47:25.624Z,82.20
2019-04-06T23:49:55.025Z,82.20
2019-04-06T23:52:25.306Z,83.20
2019-04-06T23:54:54.445Z,82.50
2019-04-06T23:57:23.820Z,82.90
2019-04-06T23:59:53.039Z,83.00
